Time;durP1;ratioP1;P1;durP2;ratioP2;P2;SDS_P1;SDS_P2;PMS_P1;PMS_P2;Temp;Humidity;BMP_temperature;BMP_pressure;BME280_temperature;BME280_humidity;BME280_pressure;Samples;Min_cycle;Max_cycle;Signal;HPM_P1;HPM_P2
2022/11/11 00:00:16;;;;;;;;;;;;;;;8.16;100.00;102694.56;5243345;28;20670;-67
2022/11/11 00:02:48;;;;;;;20.17;9.93;;;;;;;8.18;100.00;102692.72;5248650;28;19950;-67
2022/11/11 00:05:20;;;;;;;16.90;9.35;;;;;;;8.21;100.00;102697.94;5243648;28;21457;-66
2022/11/11 00:07:52;;;;;;;16.38;10.02;;;;;;;8.27;100.00;102695.97;5250357;28;20025;-67
2022/11/11 00:10:25;;;;;;;18.33;9.70;;;;;;;8.29;100.00;102704.75;5244953;28;20037;-67
2022/11/11 00:13:01;;;;;;;16.38;11.25;;;;;;;8.32;100.00;102700.19;5249563;28;20309;-67
2022/11/11 00:15:40;;;;;;;14.05;10.50;;;;;;;8.37;100.00;102700.00;5246239;28;20054;-66
2022/11/11 00:26:41;;;;;;;23.08;12.10;;;;;;;8.47;100.00;102688.13;5243106;28;20033;-67
2022/11/11 00:29:12;;;;;;;17.50;11.85;;;;;;;8.48;100.00;102691.69;5245545;28;20471;-67
2022/11/11 00:34:33;;;;;;;16.15;12.13;;;;;;;8.55;100.00;102717.09;5247980;28;20044;-66
2022/11/11 00:37:04;;;;;;;18.60;12.50;;;;;;;8.56;100.00;102702.88;5245306;28;20025;-67
2022/11/11 00:39:36;;;;;;;17.77;12.32;;;;;;;8.59;100.00;102710.72;5252575;28;20021;-67
2022/11/11 00:42:07;;;;;;;16.63;12.38;;;;;;;8.60;100.00;102705.34;5241862;28;20372;-66
2022/11/11 00:44:38;;;;;;;19.00;12.77;;;;;;;8.62;100.00;102706.16;5246264;28;20452;-67
2022/11/11 00:52:49;;;;;;;19.65;12.85;;;;;;;8.69;100.00;102712.13;5248440;28;20471;-67
2022/11/11 00:55:21;;;;;;;22.92;13.82;;;;;;;8.76;100.00;102718.97;5247052;28;20041;-67
2022/11/11 00:57:52;;;;;;;19.17;13.55;;;;;;;8.81;100.00;102716.09;5247943;28;20131;-67
2022/11/11 01:00:23;;;;;;;17.85;12.68;;;;;;;8.82;100.00;102729.38;5240565;28;20032;-66
2022/11/11 01:02:56;;;;;;;18.67;13.15;;;;;;;8.78;100.00;102716.22;5245514;28;20033;-67
2022/11/11 01:05:27;;;;;;;21.52;12.60;;;;;;;8.80;100.00;102730.31;5245208;28;20524;-67
2022/11/11 01:07:59;;;;;;;19.58;13.38;;;;;;;8.85;100.00;102731.03;5243981;28;20040;-67
2022/11/11 01:10:40;;;;;;;17.45;12.30;;;;;;;8.89;100.00;102726.44;5246294;28;20025;-67
2022/11/11 01:13:20;;;;;;;21.73;13.52;;;;;;;8.86;100.00;102732.78;5248063;28;20028;-67
2022/11/11 01:15:57;;;;;;;19.77;12.93;;;;;;;8.97;100.00;102745.66;5246226;28;20029;-67
2022/11/11 01:18:28;;;;;;;17.10;13.00;;;;;;;8.89;100.00;102737.09;5245870;28;20036;-66
2022/11/11 01:21:07;;;;;;;19.23;13.02;;;;;;;8.89;100.00;102737.09;5245469;28;20048;-66
2022/11/11 01:23:39;;;;;;;19.38;13.23;;;;;;;8.97;100.00;102735.84;5246928;28;20040;-67
2022/11/11 01:26:21;;;;;;;18.10;13.48;;;;;;;8.94;100.00;102735.13;5250222;28;20037;-67
2022/11/11 01:28:55;;;;;;;19.92;12.95;;;;;;;9.00;100.00;102729.56;5246182;28;20029;-66
2022/11/11 01:31:26;;;;;;;21.87;13.60;;;;;;;8.94;100.00;102730.69;5243833;28;20064;-66
2022/11/11 01:33:57;;;;;;;19.67;13.10;;;;;;;8.98;100.00;102732.28;5249807;28;20379;-66
2022/11/11 01:36:29;;;;;;;18.85;13.43;;;;;;;8.96;100.00;102734.13;5243743;28;20072;-67
2022/11/11 01:39:00;;;;;;;18.67;13.38;;;;;;;9.12;100.00;102729.06;5248716;28;20429;-67
2022/11/11 01:41:37;;;;;;;17.92;13.55;;;;;;;9.04;100.00;102731.16;5251480;28;20144;-67
2022/11/11 01:44:11;;;;;;;18.42;12.70;;;;;;;9.04;100.00;102728.50;5248071;28;20041;-67
2022/11/11 01:46:59;;;;;;;17.90;13.25;;;;;;;9.08;100.00;102731.91;5245170;28;20036;-67
2022/11/11 01:49:36;;;;;;;20.70;14.07;;;;;;;9.04;100.00;102720.53;5248316;28;20033;-67
2022/11/11 01:52:10;;;;;;;18.98;13.27;;;;;;;9.15;100.00;102707.66;5237652;28;20096;-67
2022/11/11 01:54:47;;;;;;;19.10;13.32;;;;;;;9.06;100.00;102717.81;5243411;28;20059;-67
2022/11/11 01:57:27;;;;;;;20.65;13.07;;;;;;;9.13;100.00;102713.97;5239276;28;20090;-67
2022/11/11 02:00:03;;;;;;;20.25;12.82;;;;;;;9.06;100.00;102712.47;5247532;28;20451;-67
2022/11/11 02:02:41;;;;;;;22.35;13.20;;;;;;;9.05;100.00;102716.94;5243847;28;20627;-67
2022/11/11 02:08:10;;;;;;;21.65;13.90;;;;;;;9.07;100.00;102719.53;5245463;28;20079;-67
2022/11/11 02:10:45;;;;;;;22.75;15.32;;;;;;;9.09;100.00;102715.00;5245355;28;20080;-67
2022/11/11 02:16:06;;;;;;;19.98;13.48;;;;;;;9.08;100.00;102708.81;5247518;28;20479;-67
2022/11/11 02:18:37;;;;;;;23.02;13.57;;;;;;;9.06;100.00;102709.81;5247317;28;20036;-67
2022/11/11 02:21:20;;;;;;;22.88;14.00;;;;;;;9.07;100.00;102698.22;5252347;28;20039;-67
2022/11/11 02:24:14;;;;;;;22.35;15.48;;;;;;;9.04;100.00;102699.22;5250036;28;20383;-67
2022/11/11 02:26:47;;;;;;;22.47;13.40;;;;;;;9.12;100.00;102698.91;5246366;28;20167;-67
2022/11/11 02:29:20;;;;;;;21.77;14.13;;;;;;;9.09;100.00;102696.34;5251719;28;20313;-67
2022/11/11 02:31:52;;;;;;;21.85;13.63;;;;;;;9.06;100.00;102681.38;5247753;28;20429;-67
2022/11/11 02:34:33;;;;;;;19.80;13.55;;;;;;;9.12;100.00;102691.78;5247085;28;20057;-67
2022/11/11 02:37:07;;;;;;;21.30;13.77;;;;;;;9.05;100.00;102690.31;5251042;28;20388;-67
2022/11/11 02:39:46;;;;;;;18.27;12.55;;;;;;;9.13;100.00;102690.00;5252506;28;20132;-67
2022/11/11 02:42:20;;;;;;;19.80;13.60;;;;;;;9.02;100.00;102691.28;5248524;28;20450;-67
2022/11/11 02:44:57;;;;;;;20.15;13.07;;;;;;;8.99;100.00;102693.22;5250461;28;20033;-67
2022/11/11 02:47:28;;;;;;;19.60;12.90;;;;;;;9.00;100.00;102689.63;5248555;28;20029;-67
2022/11/11 02:50:00;;;;;;;20.08;12.57;;;;;;;9.03;100.00;102687.72;5248314;28;21158;-67
2022/11/11 02:52:32;;;;;;;18.75;11.93;;;;;;;8.98;100.00;102691.50;5250682;28;20383;-67
2022/11/11 02:55:04;;;;;;;20.52;11.60;;;;;;;8.96;100.00;102690.69;5253251;28;20045;-67
2022/11/11 02:57:35;;;;;;;17.30;11.85;;;;;;;8.92;100.00;102684.59;5249851;28;20037;-67
2022/11/11 03:00:07;;;;;;;20.02;11.98;;;;;;;8.95;100.00;102683.59;5248530;28;20394;-67
2022/11/11 03:02:38;;;;;;;18.10;12.90;;;;;;;8.95;100.00;102670.28;5246479;28;20028;-67
2022/11/11 03:05:09;;;;;;;17.30;11.80;;;;;;;8.96;100.00;102667.59;5245996;28;20086;-67
2022/11/11 03:07:41;;;;;;;21.67;12.23;;;;;;;8.98;100.00;102680.84;5245687;28;20017;-67
2022/11/11 03:10:12;;;;;;;17.33;11.80;;;;;;;8.91;100.00;102676.69;5246852;28;20119;-67
2022/11/11 03:12:43;;;;;;;18.38;11.82;;;;;;;8.87;100.00;102675.94;5243658;28;20075;-67
2022/11/11 03:15:14;;;;;;;18.73;11.55;;;;;;;8.92;100.00;102676.63;5252917;28;20327;-67
2022/11/11 03:17:46;;;;;;;18.98;11.73;;;;;;;8.85;100.00;102667.13;5245847;28;20532;-67
2022/11/11 03:23:11;;;;;;;16.35;10.82;;;;;;;8.81;100.00;102679.69;5248114;28;20098;-67
2022/11/11 03:25:45;;;;;;;16.67;11.05;;;;;;;8.80;100.00;102688.63;5247372;28;21464;-66
2022/11/11 03:28:18;;;;;;;15.77;11.20;;;;;;;8.81;100.00;102694.81;5216925;28;20025;-67
2022/11/11 03:30:49;;;;;;;18.77;10.90;;;;;;;8.78;100.00;102701.13;5251319;28;20306;-66
2022/11/11 03:33:21;;;;;;;15.88;10.95;;;;;;;8.80;100.00;102693.97;5249786;28;20098;-66
2022/11/11 03:35:52;;;;;;;18.58;11.65;;;;;;;8.80;100.00;102693.97;5251376;28;20063;-66
2022/11/11 03:38:23;;;;;;;17.38;10.60;;;;;;;8.79;100.00;102683.38;5250539;28;20468;-67
2022/11/11 03:40:56;;;;;;;20.27;10.77;;;;;;;8.78;100.00;102693.16;5249417;28;20029;-67
2022/11/11 03:43:31;;;;;;;17.50;10.52;;;;;;;8.77;100.00;102690.53;5249120;28;20956;-66
2022/11/11 03:46:04;;;;;;;16.58;10.85;;;;;;;8.81;100.00;102690.34;5251207;28;20120;-67
2022/11/11 03:48:36;;;;;;;18.00;10.27;;;;;;;8.80;100.00;102685.06;5248082;28;20041;-67
2022/11/11 03:51:07;;;;;;;17.85;10.70;;;;;;;8.89;100.00;102686.53;5251140;28;20051;-67
2022/11/11 03:53:38;;;;;;;19.50;11.07;;;;;;;8.81;100.00;102685.03;5249641;28;20078;-67
2022/11/11 03:56:09;;;;;;;18.27;11.32;;;;;;;8.85;100.00;102680.44;5250308;28;20057;-67
2022/11/11 03:58:41;;;;;;;18.83;10.52;;;;;;;8.83;100.00;102674.31;5250525;28;20024;-67
2022/11/11 04:10:21;;;;;;;20.98;10.75;;;;;;;8.79;100.00;102684.22;5250072;28;20025;-67
2022/11/11 04:16:04;;;;;;;17.52;10.38;;;;;;;8.79;100.00;102692.22;5240355;28;20128;-66
2022/11/11 04:18:15;;;;;;;19.30;11.50;;;;;;;8.82;100.00;102696.53;5246285;28;20511;-66
2022/11/11 04:23:36;;;;;;;16.90;11.43;;;;;;;8.73;100.00;102703.09;5248483;28;20037;-67
2022/11/11 04:26:07;;;;;;;16.25;11.23;;;;;;;8.75;100.00;102695.06;5249415;28;20115;-67
2022/11/11 04:31:28;;;;;;;16.50;10.98;;;;;;;8.68;100.00;102698.88;5245913;28;20041;-66
2022/11/11 04:34:00;;;;;;;17.52;10.85;;;;;;;8.68;100.00;102697.06;5242943;28;20076;-67
2022/11/11 04:36:31;;;;;;;19.08;11.90;;;;;;;8.69;100.00;102703.28;5247570;28;20033;-66
2022/11/11 04:41:52;;;;;;;18.10;11.15;;;;;;;8.64;100.00;102692.81;5245394;28;20037;-66
2022/11/11 04:47:13;;;;;;;18.65;12.27;;;;;;;8.68;100.00;102697.06;5248680;28;20068;-67
2022/11/11 04:49:45;;;;;;;19.98;11.45;;;;;;;8.61;100.00;102696.47;5247165;28;20174;-67
2022/11/11 04:52:25;;;;;;;17.58;11.30;;;;;;;8.58;100.00;102701.88;5247845;28;20408;-66
2022/11/11 04:57:47;;;;;;;16.98;10.93;;;;;;;8.68;100.00;102697.06;5247963;28;20032;-66
2022/11/11 05:00:19;;;;;;;16.92;11.07;;;;;;;8.58;100.00;102701.88;5246503;28;20025;-67
2022/11/11 05:08:56;;;;;;;17.45;11.40;;;;;;;8.60;100.00;102694.72;5247596;28;20486;-66
2022/11/11 05:11:32;;;;;;;16.33;10.55;;;;;;;8.55;100.00;102696.69;5246670;28;20051;-67
2022/11/11 05:22:39;;;;;;;17.00;10.68;;;;;;;8.51;100.00;102696.88;5226714;28;20041;-67
2022/11/11 05:25:29;;;;;;;18.20;11.10;;;;;;;8.56;100.00;102700.22;5242123;28;20124;-67
2022/11/11 05:28:00;;;;;;;16.48;11.02;;;;;;;8.46;100.00;102699.72;5242312;28;20029;-67
2022/11/11 05:30:33;;;;;;;15.75;10.45;;;;;;;8.44;100.00;102702.41;5243470;28;20028;-67
2022/11/11 05:33:04;;;;;;;17.45;10.77;;;;;;;8.46;100.00;102698.81;5245544;28;20021;-67
2022/11/11 05:35:36;;;;;;;18.65;11.68;;;;;;;8.48;100.00;102710.31;5245800;28;20324;-67
2022/11/11 05:38:19;;;;;;;16.73;10.57;;;;;;;8.43;100.00;102713.13;5246759;28;20112;-66
2022/11/11 05:40:50;;;;;;;13.60;9.60;;;;;;;8.38;100.00;102713.25;5247176;28;20075;-66
2022/11/11 05:43:21;;;;;;;16.98;11.13;;;;;;;8.34;100.00;102714.31;5240542;28;20025;-67
2022/11/11 05:45:52;;;;;;;14.80;10.10;;;;;;;8.32;100.00;102713.50;5247024;28;20029;-66
2022/11/11 05:48:24;;;;;;;16.23;10.93;;;;;;;8.31;100.00;102716.22;5251099;28;20121;-66
2022/11/11 05:50:57;;;;;;;17.02;10.88;;;;;;;8.29;100.00;102702.97;5248825;28;20064;-66
2022/11/11 05:53:29;;;;;;;16.30;11.15;;;;;;;8.22;100.00;102693.47;5250030;28;20028;-67
2022/11/11 05:56:00;;;;;;;17.80;11.60;;;;;;;8.18;100.00;102694.50;5252578;28;20060;-66
2022/11/11 05:58:31;;;;;;;16.98;11.07;;;;;;;8.19;100.00;102698.91;5243322;28;20363;-67
2022/11/11 06:01:02;;;;;;;17.52;11.63;;;;;;;8.10;100.00;102697.44;5252171;28;20056;-71
2022/11/11 06:03:34;;;;;;;18.02;11.57;;;;;;;8.09;100.00;102698.34;5251542;28;20025;-67
2022/11/11 06:06:05;;;;;;;17.77;12.15;;;;;;;8.04;100.00;102701.19;5254531;28;20029;-67
2022/11/11 06:08:36;;;;;;;15.57;11.68;;;;;;;8.04;100.00;102711.81;5249425;28;20024;-67
2022/11/11 06:11:07;;;;;;;19.27;11.75;;;;;;;7.98;100.00;102711.19;5252684;28;20048;-67
2022/11/11 06:13:39;;;;;;;15.82;11.50;;;;;;;7.92;100.00;102714.03;5248124;28;20098;-67
2022/11/11 06:16:10;;;;;;;18.40;11.43;;;;;;;7.94;100.00;102712.19;5247594;28;20044;-67
2022/11/11 06:18:42;;;;;;;19.23;11.80;;;;;;;7.87;100.00;102702.72;5250886;28;20053;-67
2022/11/11 06:21:13;;;;;;;16.65;11.48;;;;;;;7.85;100.00;102716.06;5247960;28;20032;-67
2022/11/11 06:23:44;;;;;;;16.90;11.48;;;;;;;7.82;100.00;102711.72;5246458;28;20040;-67
2022/11/11 06:26:15;;;;;;;17.85;11.95;;;;;;;7.84;100.00;102716.97;5239459;28;20048;-67
2022/11/11 06:28:56;;;;;;;16.40;11.55;;;;;;;7.80;100.00;102733.94;5253102;28;20104;-66
2022/11/11 06:31:27;;;;;;;21.33;12.32;;;;;;;7.84;100.00;102728.50;5247856;28;20051;-66
2022/11/11 06:33:59;;;;;;;19.02;12.52;;;;;;;7.88;100.00;102731.91;5251529;28;20040;-66
2022/11/11 06:36:30;;;;;;;19.33;11.57;;;;;;;7.85;100.00;102739.97;5241943;28;20033;-67
2022/11/11 06:39:01;;;;;;;19.52;12.18;;;;;;;7.71;100.00;102732.50;5251617;28;20036;-67
2022/11/11 06:41:32;;;;;;;17.65;12.50;;;;;;;7.68;100.00;102745.00;5250464;28;20182;-67
2022/11/11 06:44:04;;;;;;;20.00;12.38;;;;;;;7.74;100.00;102743.00;5246674;28;20090;-67
2022/11/11 06:46:35;;;;;;;16.10;11.52;;;;;;;7.61;100.00;102734.59;5242280;28;20088;-67
2022/11/11 06:49:06;;;;;;;16.48;11.85;;;;;;;7.51;100.00;102743.75;5247430;28;20036;-67
2022/11/11 06:51:37;;;;;;;19.77;12.25;;;;;;;7.48;100.00;102749.19;5244543;28;20045;-67
2022/11/11 06:54:09;;;;;;;21.48;12.35;;;;;;;7.44;100.00;102743.13;5247535;28;20044;-67
2022/11/11 06:56:40;;;;;;;18.90;12.20;;;;;;;7.38;100.00;102747.75;5244259;28;20124;-67
2022/11/11 06:59:11;;;;;;;20.17;13.18;;;;;;;7.39;100.00;102744.19;5253776;28;20024;-66
2022/11/11 07:01:43;;;;;;;22.75;13.00;;;;;;;7.32;100.00;102739.97;5251019;28;20029;-67
2022/11/11 07:04:14;;;;;;;19.88;11.85;;;;;;;7.31;100.00;102743.56;5242872;28;20043;-67
2022/11/11 07:06:45;;;;;;;18.90;12.75;;;;;;;7.29;100.00;102738.31;5256326;28;20033;-66
2022/11/11 07:09:16;;;;;;;18.35;11.60;;;;;;;7.28;100.00;102741.84;5246285;28;20745;-67
2022/11/11 07:11:48;;;;;;;18.20;10.82;;;;;;;7.25;100.00;102747.28;5245859;28;20425;-68
2022/11/11 07:14:19;;;;;;;18.52;11.48;;;;;;;7.30;100.00;102749.78;5255059;28;20398;-68
2022/11/11 07:16:50;;;;;;;18.92;11.60;;;;;;;7.35;100.00;102754.03;5246579;28;20806;-67
2022/11/11 07:19:21;;;;;;;17.13;10.80;;;;;;;7.25;100.00;102747.28;5242019;28;20043;-67
2022/11/11 07:21:53;;;;;;;15.73;11.20;;;;;;;7.37;100.00;102756.66;5251647;28;20118;-68
2022/11/11 07:24:24;;;;;;;16.63;11.15;;;;;;;7.20;100.00;102759.81;5252400;28;20025;-68
2022/11/11 07:26:55;;;;;;;16.65;10.60;;;;;;;7.21;100.00;102772.16;5252419;28;20043;-68
2022/11/11 07:29:28;;;;;;;15.40;10.50;;;;;;;7.16;100.00;102769.69;5253943;28;20070;-68
2022/11/11 07:31:59;;;;;;;16.45;11.40;;;;;;;7.15;100.00;102767.06;5255481;28;20554;-68
2022/11/11 07:34:30;;;;;;;18.20;10.52;;;;;;;7.17;100.00;102767.88;5246638;28;20600;-68
2022/11/11 07:37:01;;;;;;;16.85;11.05;;;;;;;7.26;100.00;102767.59;5255207;28;20032;-68
2022/11/11 07:39:33;;;;;;;15.82;11.48;;;;;;;7.15;100.00;102770.59;5245363;28;20032;-68
2022/11/11 07:42:04;;;;;;;18.35;11.75;;;;;;;7.16;100.00;102777.63;5251444;28;20040;-68
2022/11/11 07:44:35;;;;;;;18.67;11.43;;;;;;;7.16;100.00;102785.59;5247909;28;20092;-68
2022/11/11 07:47:07;;;;;;;18.20;10.50;;;;;;;7.25;100.00;102779.16;5256290;28;20028;-68
2022/11/11 07:49:38;;;;;;;18.02;11.38;;;;;;;7.16;100.00;102776.78;5254633;28;20048;-67
2022/11/11 07:52:09;;;;;;;17.40;10.82;;;;;;;7.16;100.00;102777.63;5251199;28;20413;-68
2022/11/11 07:54:41;;;;;;;19.08;12.10;;;;;;;7.18;100.00;102791.72;5254893;28;20060;-68
2022/11/11 07:57:12;;;;;;;18.55;11.73;;;;;;;7.17;100.00;102799.72;5256704;28;20044;-68
2022/11/11 07:59:43;;;;;;;22.23;11.52;;;;;;;7.19;100.00;102798.78;5254316;28;20031;-68
2022/11/11 08:02:15;;;;;;;18.15;11.07;;;;;;;7.20;100.00;102800.50;5255228;28;20032;-68
2022/11/11 08:04:47;;;;;;;17.25;11.48;;;;;;;7.11;100.00;102792.81;5251652;28;20031;-68
2022/11/11 08:07:18;;;;;;;19.65;12.40;;;;;;;7.19;100.00;102809.41;5238361;28;20032;-68
2022/11/11 08:09:50;;;;;;;20.00;12.77;;;;;;;7.34;100.00;102816.00;5254143;28;20025;-68
2022/11/11 08:15:11;;;;;;;18.25;11.68;;;;;;;7.22;100.00;102819.91;5253380;28;20401;-67
2022/11/11 08:17:42;;;;;;;20.45;11.65;;;;;;;7.23;100.00;102823.47;5255184;28;20036;-67
2022/11/11 08:20:14;;;;;;;17.88;10.82;;;;;;;7.25;100.00;102819.84;5254980;28;20028;-67
2022/11/11 08:22:45;;;;;;;19.20;12.95;;;;;;;7.24;100.00;102828.69;5237768;28;20033;-67
2022/11/11 08:25:17;;;;;;;18.52;11.70;;;;;;;7.26;100.00;102818.91;5253640;28;20103;-67
2022/11/11 08:27:48;;;;;;;16.35;11.70;;;;;;;7.28;100.00;102826.81;5253878;28;20029;-68
2022/11/11 08:30:19;;;;;;;21.55;13.02;;;;;;;7.30;100.00;102835.63;5254971;28;20028;-69
2022/11/11 08:33:02;;;;;;;17.63;12.25;;;;;;;7.31;100.00;102836.50;5254778;28;20028;-69
2022/11/11 08:35:33;;;;;;;18.80;11.23;;;;;;;7.30;100.00;102840.91;5254557;28;20033;-68
2022/11/11 08:38:04;;;;;;;17.20;10.95;;;;;;;7.38;100.00;102841.56;5255679;28;20075;-67
2022/11/11 08:40:35;;;;;;;16.13;10.82;;;;;;;7.35;100.00;102843.47;5252965;28;20326;-68
2022/11/11 08:43:07;;;;;;;15.15;10.93;;;;;;;7.44;100.00;102848.47;5255461;28;20032;-68
2022/11/11 08:45:38;;;;;;;15.95;10.20;;;;;;;7.40;100.00;102852.13;5252386;28;20091;-68
2022/11/11 08:48:09;;;;;;;15.50;9.80;;;;;;;7.49;100.00;102857.16;5253864;28;20501;-68
2022/11/11 08:50:41;;;;;;;17.25;10.52;;;;;;;7.48;100.00;102855.44;5254806;28;20370;-67
2022/11/11 08:53:12;;;;;;;16.10;10.23;;;;;;;7.52;100.00;102862.38;5255080;28;20044;-68
2022/11/11 08:55:43;;;;;;;15.20;9.98;;;;;;;7.52;100.00;102856.22;5252863;28;20060;-67
2022/11/11 08:58:14;;;;;;;14.80;9.98;;;;;;;7.52;100.00;102862.38;5254687;28;20025;-67
2022/11/11 09:00:46;;;;;;;16.75;9.75;;;;;;;7.56;100.00;102861.38;5254885;28;20067;-68
2022/11/11 09:03:17;;;;;;;13.80;8.80;;;;;;;7.57;100.00;102860.44;5254005;28;20426;-67
2022/11/11 09:05:48;;;;;;;14.10;9.50;;;;;;;7.58;100.00;102861.31;5252397;28;20055;-67
2022/11/11 09:08:20;;;;;;;14.38;9.23;;;;;;;7.64;100.00;102853.16;5252845;28;20430;-69
2022/11/11 09:10:51;;;;;;;15.38;9.43;;;;;;;7.63;100.00;102854.97;5253998;28;20033;-67
2022/11/11 09:13:22;;;;;;;13.75;9.40;;;;;;;7.66;100.00;102861.94;5254066;28;20124;-67
2022/11/11 09:15:54;;;;;;;14.65;9.55;;;;;;;7.81;100.00;102864.13;5253478;28;20040;-68
2022/11/11 09:18:26;;;;;;;13.68;9.32;;;;;;;7.80;100.00;102861.50;5253696;28;20681;-68
2022/11/11 09:20:59;;;;;;;13.98;8.88;;;;;;;7.77;100.00;102869.59;5253702;28;20489;-68
2022/11/11 09:23:30;;;;;;;13.18;8.75;;;;;;;7.82;100.00;102867.63;5254435;28;20052;-67
2022/11/11 09:26:04;;;;;;;12.73;8.60;;;;;;;7.80;100.00;102861.50;5252741;28;20059;-67
2022/11/11 09:28:35;;;;;;;;;;;;;;;7.85;100.00;102865.75;5253203;28;20501;-68
2022/11/11 09:31:07;;;;;;;11.57;8.15;;;;;;;7.85;100.00;102867.53;5253183;28;19917;-67
2022/11/11 09:33:38;;;;;;;13.27;8.55;;;;;;;7.87;100.00;102873.69;5251780;28;20052;-68
2022/11/11 09:36:09;;;;;;;11.90;8.85;;;;;;;7.94;100.00;102872.56;5253640;28;20073;-68
2022/11/11 09:38:41;;;;;;;16.38;8.75;;;;;;;7.95;100.00;102866.31;5253547;28;20037;-68
2022/11/11 09:41:29;;;;;;;16.58;8.77;;;;;;;7.99;100.00;102869.75;5254871;28;20406;-67
2022/11/11 09:44:02;;;;;;;12.45;7.88;;;;;;;8.16;100.00;102874.50;5253889;28;20658;-68
2022/11/11 09:46:59;;;;;;;11.90;8.05;;;;;;;8.09;100.00;102876.47;5252676;28;20043;-69
2022/11/11 09:49:42;;;;;;;13.25;8.40;;;;;;;8.11;100.00;102877.34;5206570;28;20052;-67
2022/11/11 09:52:18;;;;;;;15.43;9.68;;;;;;;8.16;100.00;102872.69;5252516;28;20048;-67
2022/11/11 09:54:56;;;;;;;11.68;8.13;;;;;;;8.30;100.00;102882.00;5253720;28;20045;-69
2022/11/11 09:57:35;;;;;;;12.45;8.20;;;;;;;8.26;100.00;102889.22;5253303;28;20082;-68
2022/11/11 10:00:20;;;;;;;12.25;7.97;;;;;;;8.31;100.00;102881.09;5250127;28;20036;-67
2022/11/11 10:02:53;;;;;;;;;;;;;;;8.35;100.00;102886.25;5253181;28;20497;-68
2022/11/11 10:05:42;;;;;;;12.43;7.80;;;;;;;8.37;100.00;102880.88;5250459;28;19971;-67
2022/11/11 10:08:23;;;;;;;14.90;8.50;;;;;;;8.41;100.00;102874.53;5253640;28;20044;-68
2022/11/11 10:10:58;;;;;;;13.02;8.00;;;;;;;8.43;100.00;102884.22;5252397;28;20032;-67
2022/11/11 10:13:32;;;;;;;11.88;7.78;;;;;;;8.62;100.00;102883.59;5252266;28;20055;-67
2022/11/11 10:16:43;;;;;;;11.82;7.65;;;;;;;8.54;100.00;102886.50;5254245;28;20190;-67
2022/11/11 10:19:39;;;;;;;11.38;7.70;;;;;;;8.59;100.00;102883.69;5251913;28;20140;-67
2022/11/11 10:22:20;;;;;;;12.88;8.15;;;;;;;8.63;100.00;102886.19;5251070;28;20028;-67
2022/11/11 10:25:23;;;;;;;10.85;7.53;;;;;;;8.70;100.00;102885.97;5251426;28;20027;-67
2022/11/11 10:27:58;;;;;;;12.18;7.32;;;;;;;8.72;100.00;102878.78;5238953;28;20040;-67
2022/11/11 10:30:31;;;;;;;10.63;7.43;;;;;;;8.80;100.00;102880.28;5250304;28;20025;-67
2022/11/11 10:33:10;;;;;;;9.50;7.00;;;;;;;8.93;100.00;102890.47;5247454;28;20685;-67
2022/11/11 10:35:44;;;;;;;10.43;7.30;;;;;;;8.92;100.00;102889.59;5253535;28;20059;-67
2022/11/11 10:38:30;;;;;;;12.90;7.20;;;;;;;8.94;100.00;102892.22;5252863;28;20078;-67
2022/11/11 10:41:32;;;;;;;11.05;7.20;;;;;;;9.00;100.00;102894.63;5250457;28;20053;-67
2022/11/11 10:44:25;;;;;;;11.25;6.75;;;;;;;9.14;100.00;102884.31;5253474;28;20045;-67
2022/11/11 10:47:27;;;;;;;10.40;6.38;;;;;;;9.17;100.00;102886.88;5252092;28;20064;-67
2022/11/11 10:50:12;;;;;;;10.23;5.50;;;;;;;9.33;100.00;102891.63;5252232;28;20030;-67
2022/11/11 10:52:53;;;;;;;10.10;6.22;;;;;;;9.34;100.00;102891.56;5235754;28;20501;-67
2022/11/11 10:55:32;;;;;;;8.13;5.82;;;;;;;9.39;100.00;102886.91;5251866;28;20052;-66
2022/11/11 10:58:30;;;;;;;9.63;5.75;;;;;;;9.52;100.00;102889.97;5254752;28;20053;-67
2022/11/11 11:01:06;;;;;;;7.10;4.90;;;;;;;9.64;100.00;102880.63;5244258;28;20037;-67
2022/11/11 11:03:43;;;;;;;8.93;5.55;;;;;;;9.68;100.00;102889.38;5250568;28;20071;-67
2022/11/11 11:06:20;;;;;;;9.32;5.75;;;;;;;9.74;100.00;102887.34;5254020;28;21644;-67
2022/11/11 11:09:01;;;;;;;8.57;4.97;;;;;;;9.84;100.00;102881.63;5253182;28;20475;-68
2022/11/11 11:11:40;;;;;;;8.02;4.65;;;;;;;9.96;100.00;102886.47;5249041;28;20083;-67
2022/11/11 11:14:28;;;;;;;7.47;4.70;;;;;;;10.00;100.00;102882.75;5256298;28;20055;-67
2022/11/11 11:17:07;;;;;;;7.53;4.55;;;;;;;10.00;100.00;102872.06;5249614;28;20033;-67
2022/11/11 11:19:38;;;;;;;9.20;4.60;;;;;;;10.13;100.00;102864.44;5252011;28;20390;-67
2022/11/11 11:22:10;;;;;;;6.40;3.85;;;;;;;10.17;100.00;102874.03;5250554;28;20033;-66
2022/11/11 11:24:42;;;;;;;7.38;4.20;;;;;;;10.21;100.00;102868.50;5254024;28;20024;-67
2022/11/11 11:27:25;;;;;;;5.78;3.58;;;;;;;10.28;100.00;102877.13;5252156;28;20032;-67
2022/11/11 11:30:09;;;;;;;5.45;3.25;;;;;;;10.46;100.00;102872.81;5249566;28;20037;-67
2022/11/11 11:32:42;;;;;;;5.90;2.83;;;;;;;10.48;100.00;102873.63;5250898;28;20063;-66
2022/11/11 11:35:32;;;;;;;9.48;3.63;;;;;;;10.55;100.00;102875.09;5250299;28;20037;-66
2022/11/11 11:38:06;;;;;;;6.20;3.10;;;;;;;10.65;100.00;102878.22;5250727;28;20029;-67
2022/11/11 11:40:57;;;;;;;6.40;3.00;;;;;;;10.66;100.00;102865.72;5249129;28;20017;-67
2022/11/11 11:43:37;;;;;;;5.07;2.80;;;;;;;10.60;100.00;102864.19;5248219;28;20037;-67
2022/11/11 11:46:31;;;;;;;4.13;2.53;;;;;;;10.72;100.00;102869.00;5249440;28;20047;-66
2022/11/11 11:49:06;;;;;;;5.55;2.50;;;;;;;10.68;100.00;102862.06;5245034;28;20043;-67
2022/11/11 11:52:35;;;;;;;4.40;2.22;;;;;;;10.74;100.00;102868.94;5244833;28;20060;-67
2022/11/11 11:55:24;;;;;;;4.47;2.30;;;;;;;10.77;100.00;102861.63;5195848;28;20064;-67
2022/11/11 11:58:14;;;;;;;4.25;2.28;;;;;;;10.84;100.00;102864.06;5248788;28;20171;-67
2022/11/11 12:01:03;;;;;;;4.47;1.90;;;;;;;10.87;100.00;102848.72;5242646;28;20051;-67
2022/11/11 12:03:43;;;;;;;4.03;2.10;;;;;;;10.95;100.00;102857.28;5247200;28;20055;-66
2022/11/11 12:06:35;;;;;;;4.40;1.70;;;;;;;11.00;100.00;102862.41;5252984;28;20028;-66
2022/11/11 12:09:27;;;;;;;4.35;1.90;;;;;;;11.03;100.00;102850.72;5252272;28;20017;-67
2022/11/11 12:12:22;;;;;;;3.95;2.25;;;;;;;11.03;100.00;102854.25;5251033;28;20032;-66
2022/11/11 12:15:24;;;;;;;3.20;1.90;;;;;;;11.08;100.00;102846.88;5253315;28;20590;-67
2022/11/11 12:18:16;;;;;;;2.42;1.40;;;;;;;11.08;100.00;102838.88;5253960;28;20028;-67
2022/11/11 12:20:58;;;;;;;4.82;1.77;;;;;;;11.18;100.00;102839.31;5252535;28;22085;-67
2022/11/11 12:23:42;;;;;;;2.97;1.33;;;;;;;11.15;100.00;102836.78;5252448;28;20036;-67
2022/11/11 12:26:38;;;;;;;4.60;1.40;;;;;;;11.25;100.00;102845.22;5251837;28;20390;-68
2022/11/11 12:29:43;;;;;;;2.92;1.55;;;;;;;11.22;100.00;102834.69;5252013;28;20056;-67
2022/11/11 12:32:43;;;;;;;4.68;2.08;;;;;;;11.24;100.00;102838.16;5252323;28;20029;-67
2022/11/11 12:35:32;;;;;;;3.25;1.42;;;;;;;11.25;100.00;102832.72;5251818;28;20035;-67
2022/11/11 12:38:22;;;;;;;2.83;1.30;;;;;;;11.26;100.00;102828.28;5252899;28;20120;-67
2022/11/11 12:41:23;;;;;;;4.82;2.33;;;;;;;11.34;100.00;102826.09;5252367;28;20406;-67
2022/11/11 12:44:02;;;;;;;3.28;1.75;;;;;;;11.30;100.00;102819.16;5250773;28;20037;-67
2022/11/11 12:46:48;;;;;;;4.72;1.10;;;;;;;11.32;100.00;102833.31;5252250;28;20081;-67
2022/11/11 12:49:50;;;;;;;4.72;1.95;;;;;;;11.40;100.00;102825.78;5251233;28;20044;-67
2022/11/11 12:52:24;;;;;;;4.20;1.80;;;;;;;11.48;100.00;102830.78;5252812;28;20453;-67
2022/11/11 12:55:04;;;;;;;4.40;1.90;;;;;;;11.46;100.00;102824.63;5252322;28;20065;-67
2022/11/11 12:57:54;;;;;;;4.55;1.85;;;;;;;11.56;100.00;102826.81;5252509;28;20055;-67
2022/11/11 13:00:25;;;;;;;2.97;1.20;;;;;;;11.52;100.00;102822.50;5251318;28;20060;-67